Theodore Francis Green State Airport
KPVD : now visible

Airfield :











YOU CAN JOIN US ON...

 
LOGIN :

Register | Disclaimer

   EN    FR    IT 

 









Legend :    VFR   Marginal VFR   IFR   Intensive IFR   Very Intensive IFR
Visi :
Ceiling :
>= 8 km
>= 3000ft
5 to 8 km
1000 to 3000 ft
1500m to 5 km
500 to 1000 ft
800 to 1500m
200 to 500 ft
< 800m
< 200 ft
Symbols :   Thunderstorms  Fog  Heavy snow  Heavy precipitations  Wind > 20 kt







- Airport Elevation : 55 ft
- IATA code : PVD


KPVD - Theodore Francis Green State

CURRENT METAR :
  • 241851Z 34012G16KT 10SM FEW060 19/04 A2970 RMK AO2 SLP056 T01940044

EXPIRED METARs :
  • 241751Z 29013G21KT 10SM FEW060 FEW300 19/04 A2969 RMK AO2 PK WND 31027/1705 SLP054 T01940044 10200 20111 53004
  • 241651Z 27013G21KT 10SM FEW050 FEW300 19/06 A2969 RMK AO2 SLP053 T01890061

TAF KPVD
Valid from the 24 at 18:00 until the 25 at 18:00 UTC


241737Z 2418/2518 28014G22KT P6SM FEW050 FEW250
FM250000 31010G17KT P6SM FEW250
FM250200 31009KT P6SM FEW250
FM251400 34005KT P6SM FEW080
FM251600 30006KT P6SM FEW080
FM251700 22006KT P6SM FEW080
KZBW FIR / North America



MET'MAP, your aeronautical weather chart ! - Copyright ORBIFLY December 2007 - Disclaimer

ORBIFLY MET'MAP TEAM :

Programming & Development : Alexandra Zaïnal
Concept & Development : Baudouin d'Aumeries
Co-Development & Prog : Marc-Olivier Méhu
Technical & hardware support : Manuel Goepfert

Contact : metmap@orbifly.com




SOURCES & CREDITS :

   NOAA       Earth
Advisory